createdAt,value
2019-03-27T00:00:46.817Z,39.40
2019-03-27T00:03:12.969Z,39.30
2019-03-27T00:05:39.136Z,40.00
2019-03-27T00:08:05.285Z,39.30
2019-03-27T00:10:31.454Z,39.30
2019-03-27T00:12:57.597Z,39.30
2019-03-27T00:15:23.761Z,39.20
2019-03-27T00:17:49.908Z,39.30
2019-03-27T00:20:16.054Z,39.30
2019-03-27T00:22:42.257Z,39.30
2019-03-27T00:25:08.406Z,39.30
2019-03-27T00:27:34.554Z,39.30
2019-03-27T00:30:00.700Z,39.20
2019-03-27T00:32:26.858Z,39.30
2019-03-27T00:34:53.019Z,39.30
2019-03-27T00:37:19.204Z,39.40
2019-03-27T00:39:45.352Z,39.30
2019-03-27T00:42:11.517Z,39.30
2019-03-27T00:44:37.665Z,39.40
2019-03-27T00:47:03.829Z,39.40
2019-03-27T00:49:29.989Z,39.40
2019-03-27T00:51:56.308Z,39.30
2019-03-27T00:54:22.460Z,39.30
2019-03-27T00:56:48.636Z,39.30
2019-03-27T00:59:14.782Z,39.30
2019-03-27T01:01:40.946Z,39.40
2019-03-27T01:04:07.862Z,39.30
2019-03-27T01:06:34.036Z,39.30
2019-03-27T01:09:00.186Z,39.40
2019-03-27T01:11:26.340Z,39.30
2019-03-27T01:13:52.498Z,39.30
2019-03-27T01:16:19.412Z,39.40
2019-03-27T01:18:45.577Z,39.40
2019-03-27T01:21:11.727Z,39.40
2019-03-27T01:23:37.881Z,39.40
2019-03-27T01:26:04.028Z,39.40
2019-03-27T01:28:30.936Z,39.30
2019-03-27T01:30:57.076Z,39.30
2019-03-27T01:33:23.220Z,39.30
2019-03-27T01:35:49.360Z,39.40
2019-03-27T01:38:16.269Z,39.50
2019-03-27T01:40:42.432Z,39.40
2019-03-27T01:43:08.618Z,39.30
2019-03-27T01:45:34.774Z,39.40
2019-03-27T01:48:00.936Z,39.40
2019-03-27T01:50:27.080Z,39.30
2019-03-27T01:52:53.242Z,39.40
2019-03-27T01:55:20.156Z,39.50
2019-03-27T01:57:46.332Z,39.30
2019-03-27T02:00:12.486Z,39.40
2019-03-27T02:02:38.657Z,39.40
2019-03-27T02:05:05.576Z,39.40
2019-03-27T02:07:31.746Z,39.40
2019-03-27T02:09:57.908Z,39.40
2019-03-27T02:12:24.054Z,39.40
2019-03-27T02:14:50.200Z,39.40
2019-03-27T02:17:17.133Z,39.40
2019-03-27T02:19:43.276Z,39.40
2019-03-27T02:22:09.430Z,39.30
2019-03-27T02:24:35.581Z,39.40
2019-03-27T02:27:01.735Z,39.40
2019-03-27T02:29:27.885Z,39.50
2019-03-27T02:31:54.038Z,39.40
2019-03-27T02:34:20.194Z,39.40
2019-03-27T02:36:46.340Z,39.40
2019-03-27T02:39:12.490Z,39.40
2019-03-27T02:41:38.645Z,39.50
2019-03-27T02:44:04.794Z,39.50
2019-03-27T02:46:30.932Z,39.40
2019-03-27T02:48:57.097Z,39.50
2019-03-27T02:51:23.249Z,39.50
2019-03-27T02:53:49.404Z,39.40
2019-03-27T02:56:15.548Z,39.50
2019-03-27T02:58:41.708Z,39.50
2019-03-27T03:01:07.858Z,39.40
2019-03-27T03:03:34.029Z,39.40
2019-03-27T03:06:00.172Z,39.50
2019-03-27T03:08:26.339Z,39.50
2019-03-27T03:10:52.485Z,39.50
2019-03-27T03:13:18.643Z,39.50
2019-03-27T03:15:44.958Z,39.50
2019-03-27T03:18:11.120Z,39.40
2019-03-27T03:20:37.297Z,39.40
2019-03-27T03:23:03.602Z,39.40
2019-03-27T03:25:29.760Z,39.50
2019-03-27T03:27:55.902Z,39.40
2019-03-27T03:30:22.053Z,39.50
2019-03-27T03:32:48.201Z,39.60
2019-03-27T03:35:14.442Z,39.40
2019-03-27T03:37:40.561Z,39.40
2019-03-27T03:40:06.713Z,39.50
2019-03-27T03:42:32.868Z,39.50
2019-03-27T03:44:59.021Z,39.50
2019-03-27T03:47:25.187Z,39.50
2019-03-27T03:49:52.102Z,39.50
2019-03-27T03:52:18.264Z,39.50
2019-03-27T03:54:44.418Z,39.50
2019-03-27T03:57:10.579Z,39.50
2019-03-27T03:59:36.731Z,39.50
2019-03-27T04:02:03.645Z,39.50
2019-03-27T04:04:29.794Z,39.50
2019-03-27T04:06:55.967Z,39.50
2019-03-27T04:09:22.542Z,39.60
2019-03-27T04:11:48.686Z,39.60
2019-03-27T04:14:15.629Z,39.60
2019-03-27T04:16:41.778Z,39.70
2019-03-27T04:19:07.933Z,39.60
2019-03-27T04:21:34.085Z,39.60
2019-03-27T04:24:00.242Z,39.60
2019-03-27T04:26:26.390Z,39.60
2019-03-27T04:28:52.541Z,39.60
2019-03-27T04:31:18.708Z,39.50
2019-03-27T04:33:44.866Z,39.50
2019-03-27T04:36:11.016Z,39.50
2019-03-27T04:38:37.174Z,39.50
2019-03-27T04:41:04.089Z,39.50
2019-03-27T04:43:30.233Z,39.60
2019-03-27T04:45:56.480Z,39.50
2019-03-27T04:48:22.585Z,39.60
2019-03-27T04:50:48.729Z,39.60
2019-03-27T04:53:15.646Z,39.70
2019-03-27T04:55:41.791Z,39.60
2019-03-27T04:58:07.936Z,39.70
2019-03-27T05:00:34.093Z,39.60
2019-03-27T05:03:00.267Z,39.60
2019-03-27T05:05:27.205Z,39.70
2019-03-27T05:07:53.362Z,39.70
2019-03-27T05:10:19.525Z,39.60
2019-03-27T05:12:45.684Z,39.60
2019-03-27T05:15:11.863Z,39.60
2019-03-27T05:17:45.973Z,39.60
2019-03-27T05:20:04.960Z,39.60
2019-03-27T05:22:31.108Z,39.60
2019-03-27T05:24:57.265Z,39.60
2019-03-27T05:27:23.422Z,39.60
2019-03-27T05:29:49.572Z,39.60
2019-03-27T05:32:15.719Z,39.60
2019-03-27T05:34:41.872Z,39.60
2019-03-27T05:37:08.027Z,39.70
2019-03-27T05:39:34.354Z,39.70
2019-03-27T05:42:00.519Z,39.70
2019-03-27T05:44:26.669Z,39.60
2019-03-27T05:46:52.824Z,39.60
2019-03-27T05:49:18.985Z,39.60
2019-03-27T05:51:45.904Z,39.70
2019-03-27T05:54:12.057Z,39.60
2019-03-27T05:56:38.241Z,39.60
2019-03-27T05:59:04.398Z,39.60
2019-03-27T06:01:30.645Z,39.60
2019-03-27T06:03:56.801Z,39.60
2019-03-27T06:06:22.965Z,39.70
2019-03-27T06:08:49.117Z,39.70
2019-03-27T06:11:15.275Z,39.60
2019-03-27T06:13:41.420Z,40.40
2019-03-27T06:16:07.569Z,39.70
2019-03-27T06:18:33.721Z,40.40
2019-03-27T06:20:59.868Z,39.60
2019-03-27T06:23:26.017Z,39.70
2019-03-27T06:25:52.171Z,39.60
2019-03-27T06:28:18.336Z,39.70
2019-03-27T06:30:44.489Z,39.60
2019-03-27T06:33:10.658Z,39.70
2019-03-27T06:35:37.639Z,39.60
2019-03-27T06:38:03.770Z,39.70
2019-03-27T06:40:29.922Z,39.60
2019-03-27T06:42:56.091Z,39.70
2019-03-27T06:45:22.241Z,39.70
2019-03-27T06:47:48.416Z,39.60
2019-03-27T06:50:14.569Z,39.70
2019-03-27T06:52:40.736Z,39.70
2019-03-27T06:55:06.895Z,39.80
2019-03-27T06:57:33.068Z,39.70
2019-03-27T06:59:59.216Z,39.80
2019-03-27T07:02:28.650Z,39.70
2019-03-27T07:04:51.585Z,39.70
2019-03-27T07:07:17.744Z,39.70
2019-03-27T07:09:43.907Z,39.80
2019-03-27T07:12:20.604Z,39.80
2019-03-27T07:14:36.285Z,39.90
2019-03-27T07:17:02.428Z,39.90
2019-03-27T07:19:28.581Z,39.90
2019-03-27T07:21:54.743Z,39.90
2019-03-27T07:24:20.889Z,39.80
2019-03-27T07:26:47.042Z,39.80
2019-03-27T07:29:13.192Z,39.90
2019-03-27T07:31:39.359Z,40.00
2019-03-27T07:34:05.512Z,39.90
2019-03-27T07:36:32.416Z,40.00
2019-03-27T07:39:10.410Z,39.90
2019-03-27T07:41:24.769Z,40.00
2019-03-27T07:43:50.921Z,40.10
2019-03-27T07:46:17.077Z,40.10
2019-03-27T07:48:53.196Z,40.00
2019-03-27T07:51:09.417Z,40.10
2019-03-27T07:53:35.605Z,40.10
2019-03-27T07:56:01.766Z,40.20
2019-03-27T07:58:27.969Z,40.20
2019-03-27T08:00:54.141Z,40.20
2019-03-27T08:03:20.300Z,40.10
2019-03-27T08:05:46.456Z,40.20
2019-03-27T08:08:13.398Z,40.20
2019-03-27T08:10:39.545Z,40.20
2019-03-27T08:13:05.737Z,40.30
2019-03-27T08:15:32.036Z,40.30
2019-03-27T08:17:58.203Z,40.30
2019-03-27T08:20:24.349Z,40.40
2019-03-27T08:22:50.500Z,40.30
2019-03-27T08:25:16.656Z,40.30
2019-03-27T08:27:42.808Z,40.30
2019-03-27T08:30:08.957Z,40.30
2019-03-27T08:32:37.396Z,40.30
2019-03-27T08:35:01.301Z,40.30
2019-03-27T08:37:27.448Z,40.30
2019-03-27T08:39:53.596Z,40.30
2019-03-27T08:42:19.740Z,40.40
2019-03-27T08:44:45.884Z,40.40
2019-03-27T08:47:12.032Z,40.40
2019-03-27T08:49:38.948Z,40.40
2019-03-27T08:52:05.865Z,41.10
2019-03-27T08:54:32.034Z,40.40
2019-03-27T08:56:58.183Z,40.50
2019-03-27T08:59:24.351Z,40.50
2019-03-27T09:01:50.500Z,40.50
2019-03-27T09:04:17.429Z,40.50
2019-03-27T09:06:43.579Z,40.60
2019-03-27T09:09:09.747Z,40.60
2019-03-27T09:11:35.896Z,40.80
2019-03-27T09:14:02.032Z,40.60
2019-03-27T09:16:28.176Z,40.60
2019-03-27T09:18:54.325Z,40.50
2019-03-27T09:21:20.474Z,40.50
2019-03-27T09:23:46.625Z,40.60
2019-03-27T09:26:12.776Z,40.60
2019-03-27T09:28:39.689Z,40.50
2019-03-27T09:31:05.845Z,40.50
2019-03-27T09:33:32.004Z,40.50
2019-03-27T09:35:58.258Z,40.60
2019-03-27T09:38:24.368Z,40.70
2019-03-27T09:40:50.514Z,40.70
2019-03-27T09:43:16.680Z,40.70
2019-03-27T09:45:42.822Z,40.60
2019-03-27T09:48:08.976Z,40.60
2019-03-27T09:50:35.130Z,40.60
2019-03-27T09:53:01.285Z,40.60
2019-03-27T09:55:28.197Z,40.70
2019-03-27T09:57:54.349Z,40.70
2019-03-27T10:00:20.507Z,40.60
2019-03-27T10:02:46.652Z,40.60
2019-03-27T10:05:12.805Z,40.60
2019-03-27T10:07:38.960Z,40.70
2019-03-27T10:10:05.128Z,40.70
2019-03-27T10:12:31.281Z,40.70
2019-03-27T10:14:57.441Z,40.70
2019-03-27T10:17:23.592Z,40.70
2019-03-27T10:20:02.564Z,40.60
2019-03-27T10:22:15.928Z,40.60
2019-03-27T10:24:42.077Z,40.60
2019-03-27T10:27:08.227Z,40.60
2019-03-27T10:29:34.381Z,40.60
2019-03-27T10:32:00.585Z,40.60
2019-03-27T10:34:26.727Z,40.60
2019-03-27T10:36:52.970Z,40.60
2019-03-27T10:39:19.068Z,40.60
2019-03-27T10:41:45.223Z,40.60
2019-03-27T10:44:11.379Z,40.50
2019-03-27T10:46:37.528Z,40.60
2019-03-27T10:49:03.674Z,40.60
2019-03-27T10:51:29.832Z,40.60
2019-03-27T10:53:55.977Z,40.60
2019-03-27T10:56:22.133Z,40.60
2019-03-27T10:58:48.289Z,40.60
2019-03-27T11:01:14.442Z,40.50
2019-03-27T11:03:40.582Z,40.50
2019-03-27T11:06:06.729Z,40.50
2019-03-27T11:08:32.883Z,40.50
2019-03-27T11:10:59.032Z,40.60
2019-03-27T11:13:25.186Z,40.60
2019-03-27T11:15:52.132Z,40.50
2019-03-27T11:18:18.272Z,40.40
2019-03-27T11:20:44.465Z,40.40
2019-03-27T11:23:10.629Z,40.40
2019-03-27T11:25:36.875Z,40.40
2019-03-27T11:28:03.041Z,40.40
2019-03-27T11:30:29.198Z,40.50
2019-03-27T11:32:56.111Z,40.30
2019-03-27T11:35:22.261Z,40.30
2019-03-27T11:37:48.417Z,40.30
2019-03-27T11:40:14.574Z,40.30
2019-03-27T11:42:40.729Z,40.30
2019-03-27T11:45:06.883Z,40.30
2019-03-27T11:47:33.037Z,40.20
2019-03-27T11:49:59.192Z,41.00
2019-03-27T11:52:25.351Z,40.30
2019-03-27T11:54:51.505Z,40.20
2019-03-27T11:57:17.656Z,40.30
2019-03-27T11:59:53.968Z,40.20
2019-03-27T12:02:09.996Z,40.20
2019-03-27T12:04:36.145Z,40.30
2019-03-27T12:07:02.314Z,40.20
2019-03-27T12:09:28.461Z,40.30
2019-03-27T12:11:54.636Z,40.20
2019-03-27T12:14:20.785Z,40.20
2019-03-27T12:16:49.882Z,40.20
2019-03-27T12:19:13.141Z,40.20
2019-03-27T12:21:39.295Z,40.20
2019-03-27T12:24:05.450Z,40.20
2019-03-27T12:26:31.600Z,40.20
2019-03-27T12:28:57.748Z,40.30
2019-03-27T12:31:23.902Z,40.20
2019-03-27T12:33:50.065Z,40.20
2019-03-27T12:36:16.227Z,40.30
2019-03-27T12:38:42.369Z,40.20
2019-03-27T12:41:08.522Z,40.10
2019-03-27T12:43:34.675Z,40.10
2019-03-27T12:46:00.836Z,40.10
2019-03-27T12:48:26.987Z,40.10
2019-03-27T12:50:53.240Z,40.10
2019-03-27T12:53:19.388Z,40.00
2019-03-27T12:55:45.545Z,40.00
2019-03-27T12:58:12.463Z,40.00
2019-03-27T13:00:38.610Z,40.00
2019-03-27T13:03:04.764Z,40.00
2019-03-27T13:05:30.911Z,40.00
2019-03-27T13:07:57.087Z,40.10
2019-03-27T13:10:24.001Z,40.00
2019-03-27T13:12:50.165Z,40.00
2019-03-27T13:15:16.317Z,40.10
2019-03-27T13:17:42.485Z,40.00
2019-03-27T13:20:08.632Z,40.00
2019-03-27T13:22:38.096Z,40.00
2019-03-27T13:25:01.764Z,39.90
2019-03-27T13:27:27.909Z,40.00
2019-03-27T13:29:55.836Z,40.00
2019-03-27T13:32:21.986Z,40.00
2019-03-27T13:34:48.132Z,40.00
2019-03-27T13:37:14.499Z,39.90
2019-03-27T13:39:40.650Z,39.90
2019-03-27T13:42:06.787Z,39.90
2019-03-27T13:44:37.312Z,39.90
2019-03-27T13:46:59.162Z,39.80
2019-03-27T13:49:25.309Z,39.90
2019-03-27T13:51:51.457Z,39.80
2019-03-27T13:54:17.601Z,39.80
2019-03-27T13:56:43.788Z,39.80
2019-03-27T13:59:09.940Z,39.90
2019-03-27T14:01:36.092Z,39.80
2019-03-27T14:04:02.262Z,39.80
2019-03-27T14:06:28.412Z,39.70
2019-03-27T14:08:54.567Z,39.90
2019-03-27T14:11:20.716Z,39.80
2019-03-27T14:13:46.864Z,39.80
2019-03-27T14:16:13.778Z,39.70
2019-03-27T14:18:39.946Z,39.70
2019-03-27T14:21:06.088Z,39.60
2019-03-27T14:23:32.254Z,39.80
2019-03-27T14:25:58.406Z,39.70
2019-03-27T14:28:24.568Z,39.60
2019-03-27T14:30:50.722Z,39.70
2019-03-27T14:33:16.877Z,39.70
2019-03-27T14:35:43.030Z,39.70
2019-03-27T14:38:09.184Z,39.70
2019-03-27T14:40:35.332Z,39.70
2019-03-27T14:43:01.480Z,39.70
2019-03-27T14:45:27.642Z,39.70
2019-03-27T14:47:53.788Z,39.60
2019-03-27T14:50:19.937Z,39.70
2019-03-27T14:52:46.100Z,39.70
2019-03-27T14:55:13.008Z,39.70
2019-03-27T14:57:39.158Z,39.80
2019-03-27T15:00:05.313Z,39.70
2019-03-27T15:02:31.468Z,39.60
2019-03-27T15:04:57.608Z,39.60
2019-03-27T15:07:23.749Z,39.60
2019-03-27T15:09:49.904Z,39.60
2019-03-27T15:12:16.055Z,40.30
2019-03-27T15:14:42.212Z,39.60
2019-03-27T15:17:08.374Z,39.60
2019-03-27T15:19:35.289Z,40.20
2019-03-27T15:22:01.434Z,39.60
2019-03-27T15:24:27.601Z,39.50
2019-03-27T15:26:53.754Z,40.30
2019-03-27T15:29:19.945Z,39.60
2019-03-27T15:31:46.096Z,39.50
2019-03-27T15:34:12.240Z,39.60
2019-03-27T15:36:38.384Z,39.50
2019-03-27T15:39:04.533Z,39.50
2019-03-27T15:41:30.724Z,39.40
2019-03-27T15:43:56.869Z,39.40
2019-03-27T15:46:23.022Z,39.40
2019-03-27T15:48:49.172Z,39.40
2019-03-27T15:51:15.347Z,39.50
2019-03-27T15:53:41.494Z,39.50
2019-03-27T15:56:07.644Z,39.50
2019-03-27T15:58:33.836Z,39.40
2019-03-27T16:01:00.754Z,39.40
2019-03-27T16:03:26.905Z,39.50
2019-03-27T16:05:53.061Z,39.50
2019-03-27T16:08:19.204Z,39.50
2019-03-27T16:10:45.355Z,39.50
2019-03-27T16:13:11.508Z,39.50
2019-03-27T16:15:37.652Z,39.50
2019-03-27T16:18:03.803Z,39.60
2019-03-27T16:20:29.950Z,40.30
2019-03-27T16:22:56.104Z,39.60
2019-03-27T16:25:22.245Z,39.60
2019-03-27T16:27:48.394Z,39.60
2019-03-27T16:30:17.084Z,39.60
2019-03-27T16:32:40.759Z,39.60
2019-03-27T16:35:06.906Z,39.60
2019-03-27T16:37:33.053Z,39.60
2019-03-27T16:39:59.203Z,39.60
2019-03-27T16:42:25.351Z,39.50
2019-03-27T16:44:51.509Z,39.60
2019-03-27T16:47:17.656Z,39.60
2019-03-27T16:49:43.805Z,39.60
2019-03-27T16:52:10.806Z,39.60
2019-03-27T16:54:36.948Z,39.60
2019-03-27T16:57:03.100Z,39.70
2019-03-27T16:59:29.340Z,39.70
2019-03-27T17:01:55.442Z,39.60
2019-03-27T17:04:21.589Z,39.60
2019-03-27T17:06:48.509Z,39.70
2019-03-27T17:09:14.679Z,39.70
2019-03-27T17:11:40.830Z,39.60
2019-03-27T17:14:07.740Z,39.70
2019-03-27T17:16:33.890Z,39.70
2019-03-27T17:19:00.045Z,39.60
2019-03-27T17:21:26.208Z,39.60
2019-03-27T17:23:52.369Z,39.60
2019-03-27T17:26:18.523Z,39.60
2019-03-27T17:28:44.664Z,39.60
2019-03-27T17:31:10.813Z,39.70
2019-03-27T17:33:36.963Z,39.60
2019-03-27T17:36:03.145Z,39.60
2019-03-27T17:38:29.293Z,39.60
2019-03-27T17:40:55.444Z,39.80
2019-03-27T17:43:21.611Z,39.70
2019-03-27T17:45:47.752Z,39.70
2019-03-27T17:48:13.911Z,39.70
2019-03-27T17:50:40.076Z,39.70
2019-03-27T17:53:06.228Z,39.60
2019-03-27T17:55:32.398Z,39.70
2019-03-27T17:57:58.550Z,39.70
2019-03-27T18:00:24.702Z,39.70
2019-03-27T18:02:50.858Z,39.70
2019-03-27T18:05:17.004Z,39.80
2019-03-27T18:07:43.145Z,39.80
2019-03-27T18:10:09.751Z,39.70
2019-03-27T18:12:35.910Z,40.40
2019-03-27T18:15:02.064Z,39.70
2019-03-27T18:17:28.226Z,39.60
2019-03-27T18:19:54.372Z,39.60
2019-03-27T18:22:20.522Z,39.70
2019-03-27T18:24:46.682Z,39.70
2019-03-27T18:27:13.588Z,39.70
2019-03-27T18:29:39.744Z,39.70
2019-03-27T18:32:05.916Z,39.70
2019-03-27T18:34:32.064Z,39.80
2019-03-27T18:36:58.210Z,39.80
2019-03-27T18:39:24.366Z,39.80
2019-03-27T18:41:50.565Z,39.90
2019-03-27T18:44:16.696Z,40.60
2019-03-27T18:46:42.859Z,39.80
2019-03-27T18:49:10.636Z,39.90
2019-03-27T18:51:35.201Z,39.90
2019-03-27T18:54:01.366Z,39.90
2019-03-27T18:56:27.522Z,40.00
2019-03-27T18:58:53.690Z,39.90
2019-03-27T19:01:19.840Z,40.00
2019-03-27T19:03:45.985Z,40.00
2019-03-27T19:06:12.133Z,40.00
2019-03-27T19:08:38.286Z,40.00
2019-03-27T19:11:04.448Z,39.90
2019-03-27T19:13:30.601Z,40.00
2019-03-27T19:15:56.758Z,40.00
2019-03-27T19:18:22.920Z,39.90
2019-03-27T19:20:49.063Z,39.80
2019-03-27T19:23:15.224Z,39.90
2019-03-27T19:25:41.374Z,39.90
2019-03-27T19:28:07.546Z,40.00
2019-03-27T19:30:33.697Z,39.90
2019-03-27T19:32:59.864Z,40.00
2019-03-27T19:35:26.022Z,40.00
2019-03-27T19:37:52.194Z,40.00
2019-03-27T19:40:18.340Z,40.00
2019-03-27T19:42:44.493Z,40.00
2019-03-27T19:45:10.669Z,39.90
2019-03-27T19:47:36.853Z,40.70
2019-03-27T19:50:03.008Z,40.00
2019-03-27T19:52:29.916Z,40.00
2019-03-27T19:54:56.061Z,39.90
2019-03-27T19:57:22.218Z,39.90
2019-03-27T19:59:48.389Z,40.00
2019-03-27T20:02:14.536Z,40.00
2019-03-27T20:04:40.700Z,40.00
2019-03-27T20:07:06.854Z,40.00
2019-03-27T20:09:33.017Z,40.10
2019-03-27T20:11:59.173Z,40.00
2019-03-27T20:14:25.346Z,40.00
2019-03-27T20:16:51.491Z,40.00
2019-03-27T20:19:17.664Z,40.00
2019-03-27T20:21:43.827Z,40.00
2019-03-27T20:24:10.018Z,40.00
2019-03-27T20:26:36.168Z,40.00
2019-03-27T20:29:02.325Z,40.10
2019-03-27T20:31:28.481Z,39.90
2019-03-27T20:33:55.396Z,40.00
2019-03-27T20:36:21.541Z,40.00
2019-03-27T20:38:47.690Z,40.00
2019-03-27T20:41:13.839Z,40.10
2019-03-27T20:43:39.987Z,40.00
2019-03-27T20:46:06.908Z,39.90
2019-03-27T20:48:33.061Z,39.90
2019-03-27T20:50:59.230Z,40.00
2019-03-27T20:53:25.376Z,40.00
2019-03-27T20:55:51.529Z,39.90
2019-03-27T20:58:17.675Z,40.00
2019-03-27T21:00:43.821Z,40.10
2019-03-27T21:03:09.987Z,40.10
2019-03-27T21:05:36.156Z,40.00
2019-03-27T21:08:02.317Z,40.00
2019-03-27T21:10:28.486Z,40.10
2019-03-27T21:12:54.644Z,40.00
2019-03-27T21:15:20.805Z,40.10
2019-03-27T21:17:46.970Z,40.10
2019-03-27T21:20:13.153Z,40.10
2019-03-27T21:22:39.297Z,40.10
2019-03-27T21:25:09.040Z,40.10
2019-03-27T21:27:32.396Z,40.20
2019-03-27T21:29:58.549Z,40.20
2019-03-27T21:32:24.699Z,40.10
2019-03-27T21:34:50.848Z,40.00
2019-03-27T21:37:16.983Z,40.00
2019-03-27T21:39:43.132Z,40.10
2019-03-27T21:42:09.300Z,40.00
2019-03-27T21:44:35.461Z,40.10
2019-03-27T21:47:01.640Z,40.10
2019-03-27T21:49:27.793Z,40.10
2019-03-27T21:51:54.034Z,40.10
2019-03-27T21:54:20.147Z,40.00
2019-03-27T21:56:46.341Z,40.80
2019-03-27T21:59:12.644Z,40.10
2019-03-27T22:01:38.803Z,40.10
2019-03-27T22:04:04.947Z,40.00
2019-03-27T22:06:31.132Z,40.10
2019-03-27T22:08:57.320Z,40.10
2019-03-27T22:11:23.472Z,40.10
2019-03-27T22:13:49.621Z,40.10
2019-03-27T22:16:16.541Z,40.20
2019-03-27T22:18:42.691Z,40.20
2019-03-27T22:21:08.840Z,40.10
2019-03-27T22:23:35.017Z,40.10
2019-03-27T22:26:01.174Z,40.10
2019-03-27T22:28:28.088Z,40.20
2019-03-27T22:30:54.238Z,40.20
2019-03-27T22:33:20.389Z,40.10
2019-03-27T22:35:46.539Z,40.10
2019-03-27T22:38:12.701Z,40.10
2019-03-27T22:40:38.841Z,40.10
2019-03-27T22:43:05.008Z,40.10
2019-03-27T22:45:31.156Z,40.10
2019-03-27T22:47:57.315Z,40.10
2019-03-27T22:50:23.868Z,40.20
2019-03-27T22:52:50.036Z,40.20
2019-03-27T22:55:16.184Z,40.20
2019-03-27T22:57:42.352Z,40.10
2019-03-27T23:00:08.498Z,40.10
2019-03-27T23:02:34.681Z,40.10
2019-03-27T23:05:00.828Z,40.10
2019-03-27T23:07:26.983Z,40.00
2019-03-27T23:09:53.130Z,40.10
2019-03-27T23:12:19.290Z,40.20
2019-03-27T23:14:45.448Z,40.20
2019-03-27T23:17:11.599Z,40.20
2019-03-27T23:19:37.756Z,40.10
2019-03-27T23:22:03.898Z,40.00
2019-03-27T23:24:30.040Z,40.20
2019-03-27T23:26:56.186Z,40.10
2019-03-27T23:29:22.348Z,40.10
2019-03-27T23:31:48.493Z,40.20
2019-03-27T23:34:15.413Z,40.10
2019-03-27T23:36:41.567Z,40.10
2019-03-27T23:39:07.722Z,40.20
2019-03-27T23:41:33.868Z,40.20
2019-03-27T23:44:00.016Z,40.20
2019-03-27T23:46:26.166Z,40.30
2019-03-27T23:48:52.312Z,40.30
2019-03-27T23:51:18.465Z,40.10
2019-03-27T23:53:44.609Z,40.10
2019-03-27T23:56:16.388Z,40.20
2019-03-27T23:58:36.947Z,40.10
